sensor_id;sensor_type;location;lat;lon;timestamp;P1;durP1;ratioP1;P2;durP2;ratioP2
70997;SDS011;58663;52.040;4.634;2022-11-25T00:01:05;17.98;;;3.78;;
70997;SDS011;58663;52.040;4.634;2022-11-25T00:03:31;12.85;;;4.25;;
70997;SDS011;58663;52.040;4.634;2022-11-25T00:06:06;13.88;;;3.40;;
70997;SDS011;58663;52.040;4.634;2022-11-25T00:08:35;24.10;;;3.97;;
70997;SDS011;58663;52.040;4.634;2022-11-25T00:11:01;14.85;;;3.85;;
70997;SDS011;58663;52.040;4.634;2022-11-25T00:13:27;14.38;;;3.75;;
70997;SDS011;58663;52.040;4.634;2022-11-25T00:15:53;21.55;;;4.10;;
70997;SDS011;58663;52.040;4.634;2022-11-25T00:18:18;15.68;;;3.75;;
70997;SDS011;58663;52.040;4.634;2022-11-25T00:20:44;22.38;;;4.82;;
70997;SDS011;58663;52.040;4.634;2022-11-25T00:23:09;24.98;;;4.88;;
70997;SDS011;58663;52.040;4.634;2022-11-25T00:25:34;21.52;;;4.63;;
70997;SDS011;58663;52.040;4.634;2022-11-25T00:28:00;17.10;;;4.05;;
70997;SDS011;58663;52.040;4.634;2022-11-25T00:30:25;15.95;;;4.85;;
70997;SDS011;58663;52.040;4.634;2022-11-25T00:32:52;16.38;;;4.18;;
70997;SDS011;58663;52.040;4.634;2022-11-25T00:35:17;17.20;;;4.57;;
70997;SDS011;58663;52.040;4.634;2022-11-25T00:37:43;18.25;;;5.20;;
70997;SDS011;58663;52.040;4.634;2022-11-25T00:40:08;21.85;;;5.35;;
70997;SDS011;58663;52.040;4.634;2022-11-25T00:42:34;20.70;;;5.18;;
70997;SDS011;58663;52.040;4.634;2022-11-25T00:45:18;14.02;;;4.85;;
70997;SDS011;58663;52.040;4.634;2022-11-25T00:47:44;18.20;;;4.45;;
70997;SDS011;58663;52.040;4.634;2022-11-25T00:50:09;21.08;;;5.53;;
70997;SDS011;58663;52.040;4.634;2022-11-25T00:52:34;19.75;;;5.32;;
70997;SDS011;58663;52.040;4.634;2022-11-25T00:55:01;15.27;;;4.88;;
70997;SDS011;58663;52.040;4.634;2022-11-25T00:57:27;18.17;;;5.10;;
70997;SDS011;58663;52.040;4.634;2022-11-25T00:59:53;18.95;;;4.88;;
70997;SDS011;58663;52.040;4.634;2022-11-25T01:02:18;19.42;;;5.18;;
70997;SDS011;58663;52.040;4.634;2022-11-25T01:04:44;23.27;;;5.57;;
70997;SDS011;58663;52.040;4.634;2022-11-25T01:07:10;25.10;;;5.40;;
70997;SDS011;58663;52.040;4.634;2022-11-25T01:09:35;14.68;;;5.18;;
70997;SDS011;58663;52.040;4.634;2022-11-25T01:12:01;19.15;;;5.25;;
70997;SDS011;58663;52.040;4.634;2022-11-25T01:14:27;20.90;;;5.90;;
70997;SDS011;58663;52.040;4.634;2022-11-25T01:16:53;22.17;;;6.47;;
70997;SDS011;58663;52.040;4.634;2022-11-25T01:19:18;17.77;;;5.90;;
70997;SDS011;58663;52.040;4.634;2022-11-25T01:21:44;20.23;;;6.45;;
70997;SDS011;58663;52.040;4.634;2022-11-25T01:24:11;16.10;;;6.88;;
70997;SDS011;58663;52.040;4.634;2022-11-25T01:26:38;17.85;;;5.78;;
70997;SDS011;58663;52.040;4.634;2022-11-25T01:29:05;19.80;;;6.70;;
70997;SDS011;58663;52.040;4.634;2022-11-25T01:31:33;18.25;;;6.95;;
70997;SDS011;58663;52.040;4.634;2022-11-25T01:34:03;32.97;;;6.90;;
70997;SDS011;58663;52.040;4.634;2022-11-25T01:36:30;26.27;;;6.97;;
70997;SDS011;58663;52.040;4.634;2022-11-25T01:38:57;22.38;;;7.10;;
70997;SDS011;58663;52.040;4.634;2022-11-25T01:41:24;26.52;;;6.00;;
70997;SDS011;58663;52.040;4.634;2022-11-25T01:44:01;26.23;;;6.78;;
70997;SDS011;58663;52.040;4.634;2022-11-25T01:46:28;17.15;;;5.30;;
70997;SDS011;58663;52.040;4.634;2022-11-25T01:48:59;22.45;;;5.68;;
70997;SDS011;58663;52.040;4.634;2022-11-25T01:54:01;21.02;;;4.82;;
70997;SDS011;58663;52.040;4.634;2022-11-25T01:56:27;15.13;;;5.40;;
70997;SDS011;58663;52.040;4.634;2022-11-25T01:58:55;22.02;;;4.70;;
70997;SDS011;58663;52.040;4.634;2022-11-25T02:01:20;15.30;;;4.32;;
70997;SDS011;58663;52.040;4.634;2022-11-25T02:03:46;18.52;;;4.38;;
70997;SDS011;58663;52.040;4.634;2022-11-25T02:06:21;13.00;;;4.18;;
70997;SDS011;58663;52.040;4.634;2022-11-25T02:08:50;16.38;;;4.40;;
70997;SDS011;58663;52.040;4.634;2022-11-25T02:11:17;27.73;;;4.60;;
70997;SDS011;58663;52.040;4.634;2022-11-25T02:13:43;15.13;;;4.25;;
70997;SDS011;58663;52.040;4.634;2022-11-25T02:16:10;32.00;;;4.47;;
70997;SDS011;58663;52.040;4.634;2022-11-25T02:18:35;12.98;;;3.83;;
70997;SDS011;58663;52.040;4.634;2022-11-25T02:21:01;20.85;;;3.85;;
70997;SDS011;58663;52.040;4.634;2022-11-25T02:25:57;13.27;;;3.20;;
70997;SDS011;58663;52.040;4.634;2022-11-25T02:28:24;22.40;;;3.45;;
70997;SDS011;58663;52.040;4.634;2022-11-25T02:30:51;18.00;;;3.85;;
70997;SDS011;58663;52.040;4.634;2022-11-25T02:33:17;12.90;;;3.88;;
70997;SDS011;58663;52.040;4.634;2022-11-25T02:38:28;16.13;;;3.13;;
70997;SDS011;58663;52.040;4.634;2022-11-25T02:43:34;14.48;;;2.78;;
70997;SDS011;58663;52.040;4.634;2022-11-25T02:46:01;7.35;;;2.78;;
70997;SDS011;58663;52.040;4.634;2022-11-25T02:48:32;12.45;;;2.83;;
70997;SDS011;58663;52.040;4.634;2022-11-25T02:50:59;9.98;;;2.75;;
70997;SDS011;58663;52.040;4.634;2022-11-25T02:53:25;12.32;;;2.65;;
70997;SDS011;58663;52.040;4.634;2022-11-25T02:55:50;10.63;;;2.72;;
70997;SDS011;58663;52.040;4.634;2022-11-25T02:58:16;12.48;;;2.63;;
70997;SDS011;58663;52.040;4.634;2022-11-25T03:00:41;10.07;;;2.60;;
70997;SDS011;58663;52.040;4.634;2022-11-25T03:03:07;17.85;;;3.42;;
70997;SDS011;58663;52.040;4.634;2022-11-25T03:05:33;5.95;;;1.90;;
70997;SDS011;58663;52.040;4.634;2022-11-25T03:07:58;9.77;;;2.38;;
70997;SDS011;58663;52.040;4.634;2022-11-25T03:10:24;12.32;;;2.17;;
70997;SDS011;58663;52.040;4.634;2022-11-25T03:12:49;11.57;;;2.75;;
70997;SDS011;58663;52.040;4.634;2022-11-25T03:15:15;9.85;;;2.40;;
70997;SDS011;58663;52.040;4.634;2022-11-25T03:17:40;11.80;;;2.28;;
70997;SDS011;58663;52.040;4.634;2022-11-25T03:20:06;7.80;;;2.03;;
70997;SDS011;58663;52.040;4.634;2022-11-25T03:22:32;4.68;;;1.90;;
70997;SDS011;58663;52.040;4.634;2022-11-25T03:24:57;9.32;;;2.10;;
70997;SDS011;58663;52.040;4.634;2022-11-25T03:27:23;9.77;;;3.75;;
70997;SDS011;58663;52.040;4.634;2022-11-25T03:29:48;7.53;;;2.20;;
70997;SDS011;58663;52.040;4.634;2022-11-25T03:32:14;16.25;;;2.17;;
70997;SDS011;58663;52.040;4.634;2022-11-25T03:34:39;11.65;;;2.65;;
70997;SDS011;58663;52.040;4.634;2022-11-25T03:37:05;10.48;;;2.15;;
70997;SDS011;58663;52.040;4.634;2022-11-25T03:39:30;10.60;;;2.20;;
70997;SDS011;58663;52.040;4.634;2022-11-25T03:41:56;12.35;;;2.08;;
70997;SDS011;58663;52.040;4.634;2022-11-25T03:44:21;10.60;;;2.33;;
70997;SDS011;58663;52.040;4.634;2022-11-25T03:46:47;8.25;;;1.92;;
70997;SDS011;58663;52.040;4.634;2022-11-25T03:49:12;5.82;;;1.90;;
70997;SDS011;58663;52.040;4.634;2022-11-25T03:51:38;9.18;;;2.00;;
70997;SDS011;58663;52.040;4.634;2022-11-25T03:54:03;5.47;;;1.80;;
70997;SDS011;58663;52.040;4.634;2022-11-25T03:56:28;6.00;;;2.10;;
70997;SDS011;58663;52.040;4.634;2022-11-25T03:58:54;7.70;;;2.05;;
70997;SDS011;58663;52.040;4.634;2022-11-25T04:01:19;5.18;;;2.05;;
70997;SDS011;58663;52.040;4.634;2022-11-25T04:03:45;8.80;;;2.42;;
70997;SDS011;58663;52.040;4.634;2022-11-25T04:06:10;3.95;;;1.80;;
70997;SDS011;58663;52.040;4.634;2022-11-25T04:08:35;12.02;;;1.90;;
70997;SDS011;58663;52.040;4.634;2022-11-25T04:11:01;5.40;;;2.05;;
70997;SDS011;58663;52.040;4.634;2022-11-25T04:13:26;6.95;;;2.20;;
70997;SDS011;58663;52.040;4.634;2022-11-25T04:15:52;21.05;;;2.17;;
70997;SDS011;58663;52.040;4.634;2022-11-25T04:18:18;11.40;;;1.90;;
70997;SDS011;58663;52.040;4.634;2022-11-25T04:20:44;10.60;;;1.60;;
70997;SDS011;58663;52.040;4.634;2022-11-25T04:23:09;6.32;;;1.50;;
70997;SDS011;58663;52.040;4.634;2022-11-25T04:25:36;4.05;;;1.60;;
70997;SDS011;58663;52.040;4.634;2022-11-25T04:28:02;4.47;;;1.48;;
70997;SDS011;58663;52.040;4.634;2022-11-25T04:30:28;8.93;;;1.75;;
70997;SDS011;58663;52.040;4.634;2022-11-25T04:32:53;5.63;;;1.85;;
70997;SDS011;58663;52.040;4.634;2022-11-25T04:35:19;6.63;;;1.45;;
70997;SDS011;58663;52.040;4.634;2022-11-25T04:37:44;6.57;;;1.73;;
70997;SDS011;58663;52.040;4.634;2022-11-25T04:40:09;4.25;;;1.65;;
70997;SDS011;58663;52.040;4.634;2022-11-25T04:42:35;2.63;;;1.60;;
70997;SDS011;58663;52.040;4.634;2022-11-25T04:45:05;3.47;;;1.27;;
70997;SDS011;58663;52.040;4.634;2022-11-25T04:47:32;8.55;;;1.20;;
70997;SDS011;58663;52.040;4.634;2022-11-25T04:49:58;4.18;;;1.88;;
70997;SDS011;58663;52.040;4.634;2022-11-25T04:52:24;4.53;;;1.17;;
70997;SDS011;58663;52.040;4.634;2022-11-25T04:54:49;4.18;;;1.38;;
70997;SDS011;58663;52.040;4.634;2022-11-25T04:57:14;11.43;;;1.65;;
70997;SDS011;58663;52.040;4.634;2022-11-25T04:59:41;6.93;;;1.27;;
70997;SDS011;58663;52.040;4.634;2022-11-25T05:04:49;8.73;;;2.25;;
70997;SDS011;58663;52.040;4.634;2022-11-25T05:07:17;12.18;;;1.95;;
70997;SDS011;58663;52.040;4.634;2022-11-25T05:09:43;4.68;;;2.03;;
70997;SDS011;58663;52.040;4.634;2022-11-25T05:12:10;9.02;;;1.85;;
70997;SDS011;58663;52.040;4.634;2022-11-25T05:14:37;9.25;;;1.98;;
70997;SDS011;58663;52.040;4.634;2022-11-25T05:17:03;7.82;;;1.98;;
70997;SDS011;58663;52.040;4.634;2022-11-25T05:19:29;7.00;;;2.13;;
70997;SDS011;58663;52.040;4.634;2022-11-25T05:21:54;7.88;;;2.20;;
70997;SDS011;58663;52.040;4.634;2022-11-25T05:24:20;7.78;;;1.70;;
70997;SDS011;58663;52.040;4.634;2022-11-25T05:26:45;13.88;;;2.42;;
70997;SDS011;58663;52.040;4.634;2022-11-25T05:29:11;13.55;;;2.17;;
70997;SDS011;58663;52.040;4.634;2022-11-25T05:31:36;8.05;;;2.42;;
70997;SDS011;58663;52.040;4.634;2022-11-25T05:34:02;4.97;;;2.10;;
70997;SDS011;58663;52.040;4.634;2022-11-25T05:36:27;10.70;;;2.30;;
70997;SDS011;58663;52.040;4.634;2022-11-25T05:38:54;12.10;;;2.05;;
70997;SDS011;58663;52.040;4.634;2022-11-25T05:41:20;9.23;;;2.28;;
70997;SDS011;58663;52.040;4.634;2022-11-25T05:43:46;7.90;;;2.30;;
70997;SDS011;58663;52.040;4.634;2022-11-25T05:46:11;8.98;;;2.42;;
70997;SDS011;58663;52.040;4.634;2022-11-25T05:48:37;14.18;;;2.35;;
70997;SDS011;58663;52.040;4.634;2022-11-25T05:51:02;8.68;;;2.20;;
70997;SDS011;58663;52.040;4.634;2022-11-25T05:53:28;8.82;;;2.58;;
70997;SDS011;58663;52.040;4.634;2022-11-25T05:55:55;8.00;;;2.70;;
70997;SDS011;58663;52.040;4.634;2022-11-25T05:58:21;10.90;;;2.70;;
70997;SDS011;58663;52.040;4.634;2022-11-25T06:00:47;7.97;;;2.83;;
70997;SDS011;58663;52.040;4.634;2022-11-25T06:03:13;8.35;;;2.70;;
70997;SDS011;58663;52.040;4.634;2022-11-25T06:05:38;7.80;;;2.38;;
70997;SDS011;58663;52.040;4.634;2022-11-25T06:08:05;6.15;;;2.05;;
70997;SDS011;58663;52.040;4.634;2022-11-25T06:10:31;12.00;;;2.40;;
70997;SDS011;58663;52.040;4.634;2022-11-25T06:12:56;14.75;;;2.90;;
70997;SDS011;58663;52.040;4.634;2022-11-25T06:15:22;13.88;;;2.40;;
70997;SDS011;58663;52.040;4.634;2022-11-25T06:17:47;15.25;;;2.97;;
70997;SDS011;58663;52.040;4.634;2022-11-25T06:20:12;12.85;;;2.35;;
70997;SDS011;58663;52.040;4.634;2022-11-25T06:22:38;10.57;;;2.60;;
70997;SDS011;58663;52.040;4.634;2022-11-25T06:25:03;12.60;;;2.90;;
70997;SDS011;58663;52.040;4.634;2022-11-25T06:27:29;10.02;;;2.45;;
70997;SDS011;58663;52.040;4.634;2022-11-25T06:29:55;12.23;;;2.92;;
70997;SDS011;58663;52.040;4.634;2022-11-25T06:32:20;13.88;;;2.90;;
70997;SDS011;58663;52.040;4.634;2022-11-25T06:34:45;14.32;;;3.33;;
70997;SDS011;58663;52.040;4.634;2022-11-25T06:37:11;15.55;;;2.80;;
70997;SDS011;58663;52.040;4.634;2022-11-25T06:39:37;15.07;;;3.58;;
70997;SDS011;58663;52.040;4.634;2022-11-25T06:42:02;9.00;;;3.13;;
70997;SDS011;58663;52.040;4.634;2022-11-25T06:44:28;12.43;;;3.00;;
70997;SDS011;58663;52.040;4.634;2022-11-25T06:46:53;17.92;;;3.13;;
70997;SDS011;58663;52.040;4.634;2022-11-25T06:49:19;13.65;;;3.78;;
70997;SDS011;58663;52.040;4.634;2022-11-25T06:51:44;11.57;;;2.80;;
70997;SDS011;58663;52.040;4.634;2022-11-25T06:54:09;12.77;;;3.63;;
70997;SDS011;58663;52.040;4.634;2022-11-25T06:56:35;14.55;;;3.40;;
70997;SDS011;58663;52.040;4.634;2022-11-25T06:59:00;11.07;;;3.20;;
70997;SDS011;58663;52.040;4.634;2022-11-25T07:01:28;12.57;;;3.05;;
70997;SDS011;58663;52.040;4.634;2022-11-25T07:03:55;15.15;;;2.90;;
70997;SDS011;58663;52.040;4.634;2022-11-25T07:06:22;10.98;;;2.85;;
70997;SDS011;58663;52.040;4.634;2022-11-25T07:08:48;7.82;;;3.03;;
70997;SDS011;58663;52.040;4.634;2022-11-25T07:11:18;10.85;;;3.45;;
70997;SDS011;58663;52.040;4.634;2022-11-25T07:13:46;19.65;;;3.33;;
70997;SDS011;58663;52.040;4.634;2022-11-25T07:16:12;14.68;;;3.42;;
70997;SDS011;58663;52.040;4.634;2022-11-25T07:18:38;15.35;;;3.38;;
70997;SDS011;58663;52.040;4.634;2022-11-25T07:21:06;21.00;;;3.80;;
70997;SDS011;58663;52.040;4.634;2022-11-25T07:23:33;13.82;;;3.20;;
70997;SDS011;58663;52.040;4.634;2022-11-25T07:26:06;17.52;;;4.10;;
70997;SDS011;58663;52.040;4.634;2022-11-25T07:28:42;12.05;;;3.33;;
70997;SDS011;58663;52.040;4.634;2022-11-25T07:33:42;9.23;;;3.47;;
70997;SDS011;58663;52.040;4.634;2022-11-25T07:36:08;13.45;;;3.63;;
70997;SDS011;58663;52.040;4.634;2022-11-25T07:38:35;15.52;;;3.40;;
70997;SDS011;58663;52.040;4.634;2022-11-25T07:41:08;11.95;;;4.00;;
70997;SDS011;58663;52.040;4.634;2022-11-25T07:43:38;13.70;;;3.25;;
70997;SDS011;58663;52.040;4.634;2022-11-25T07:46:23;20.42;;;3.47;;
70997;SDS011;58663;52.040;4.634;2022-11-25T07:48:55;20.70;;;3.50;;
70997;SDS011;58663;52.040;4.634;2022-11-25T07:53:49;7.38;;;2.50;;
70997;SDS011;58663;52.040;4.634;2022-11-25T07:56:15;9.90;;;3.30;;
70997;SDS011;58663;52.040;4.634;2022-11-25T07:58:41;17.13;;;2.75;;
70997;SDS011;58663;52.040;4.634;2022-11-25T08:01:08;22.35;;;3.03;;
70997;SDS011;58663;52.040;4.634;2022-11-25T08:03:35;11.88;;;3.50;;
70997;SDS011;58663;52.040;4.634;2022-11-25T08:06:05;10.50;;;2.85;;
70997;SDS011;58663;52.040;4.634;2022-11-25T08:08:32;6.25;;;2.70;;
70997;SDS011;58663;52.040;4.634;2022-11-25T08:10:58;11.15;;;2.20;;
70997;SDS011;58663;52.040;4.634;2022-11-25T08:13:24;13.75;;;3.05;;
70997;SDS011;58663;52.040;4.634;2022-11-25T08:15:49;11.43;;;2.45;;
70997;SDS011;58663;52.040;4.634;2022-11-25T08:18:15;9.18;;;2.55;;
70997;SDS011;58663;52.040;4.634;2022-11-25T08:20:41;16.85;;;2.53;;
70997;SDS011;58663;52.040;4.634;2022-11-25T08:23:06;16.15;;;2.72;;
70997;SDS011;58663;52.040;4.634;2022-11-25T08:25:32;9.88;;;2.78;;
70997;SDS011;58663;52.040;4.634;2022-11-25T08:27:58;14.65;;;3.00;;
70997;SDS011;58663;52.040;4.634;2022-11-25T08:30:23;8.82;;;2.65;;
70997;SDS011;58663;52.040;4.634;2022-11-25T08:32:50;9.20;;;3.00;;
70997;SDS011;58663;52.040;4.634;2022-11-25T08:35:16;13.85;;;2.97;;
70997;SDS011;58663;52.040;4.634;2022-11-25T08:37:42;16.00;;;2.90;;
70997;SDS011;58663;52.040;4.634;2022-11-25T08:40:08;12.60;;;3.40;;
70997;SDS011;58663;52.040;4.634;2022-11-25T08:42:34;13.90;;;2.85;;
70997;SDS011;58663;52.040;4.634;2022-11-25T08:45:00;10.30;;;3.20;;
70997;SDS011;58663;52.040;4.634;2022-11-25T08:47:25;11.90;;;2.70;;
70997;SDS011;58663;52.040;4.634;2022-11-25T08:49:51;13.73;;;3.15;;
70997;SDS011;58663;52.040;4.634;2022-11-25T08:52:18;17.88;;;2.70;;
70997;SDS011;58663;52.040;4.634;2022-11-25T08:54:44;10.75;;;3.22;;
70997;SDS011;58663;52.040;4.634;2022-11-25T08:57:09;10.10;;;3.20;;
70997;SDS011;58663;52.040;4.634;2022-11-25T08:59:35;11.55;;;3.53;;
70997;SDS011;58663;52.040;4.634;2022-11-25T09:02:01;11.32;;;3.13;;
70997;SDS011;58663;52.040;4.634;2022-11-25T09:04:27;13.52;;;3.67;;
70997;SDS011;58663;52.040;4.634;2022-11-25T09:06:52;9.77;;;3.22;;
70997;SDS011;58663;52.040;4.634;2022-11-25T09:09:18;12.25;;;3.60;;
70997;SDS011;58663;52.040;4.634;2022-11-25T09:11:43;19.30;;;3.53;;
70997;SDS011;58663;52.040;4.634;2022-11-25T09:14:09;14.73;;;3.33;;
70997;SDS011;58663;52.040;4.634;2022-11-25T09:16:35;14.57;;;3.17;;
70997;SDS011;58663;52.040;4.634;2022-11-25T09:19:00;14.05;;;2.65;;
70997;SDS011;58663;52.040;4.634;2022-11-25T09:21:26;13.15;;;3.45;;
70997;SDS011;58663;52.040;4.634;2022-11-25T09:23:52;17.77;;;3.33;;
70997;SDS011;58663;52.040;4.634;2022-11-25T09:26:26;13.73;;;4.03;;
70997;SDS011;58663;52.040;4.634;2022-11-25T09:28:53;16.50;;;3.42;;
70997;SDS011;58663;52.040;4.634;2022-11-25T09:31:19;10.77;;;3.03;;
70997;SDS011;58663;52.040;4.634;2022-11-25T09:33:45;14.88;;;3.95;;
70997;SDS011;58663;52.040;4.634;2022-11-25T09:36:14;11.93;;;3.30;;
70997;SDS011;58663;52.040;4.634;2022-11-25T09:38:40;20.23;;;3.63;;
70997;SDS011;58663;52.040;4.634;2022-11-25T09:47:38;8.15;;;3.72;;
70997;SDS011;58663;52.040;4.634;2022-11-25T09:58:52;19.48;;;3.38;;
70997;SDS011;58663;52.040;4.634;2022-11-25T10:01:25;18.08;;;3.65;;
70997;SDS011;58663;52.040;4.634;2022-11-25T10:04:08;11.73;;;2.90;;
70997;SDS011;58663;52.040;4.634;2022-11-25T10:06:37;19.23;;;3.33;;
70997;SDS011;58663;52.040;4.634;2022-11-25T10:09:10;11.65;;;2.90;;
70997;SDS011;58663;52.040;4.634;2022-11-25T10:14:23;16.05;;;2.95;;
70997;SDS011;58663;52.040;4.634;2022-11-25T10:22:41;22.20;;;2.75;;
70997;SDS011;58663;52.040;4.634;2022-11-25T10:25:12;12.65;;;2.55;;
70997;SDS011;58663;52.040;4.634;2022-11-25T10:30:26;10.73;;;2.35;;
70997;SDS011;58663;52.040;4.634;2022-11-25T10:33:04;14.32;;;2.60;;
70997;SDS011;58663;52.040;4.634;2022-11-25T10:35:47;11.98;;;2.80;;
70997;SDS011;58663;52.040;4.634;2022-11-25T10:38:49;18.75;;;3.67;;
70997;SDS011;58663;52.040;4.634;2022-11-25T10:41:13;19.90;;;2.88;;
70997;SDS011;58663;52.040;4.634;2022-11-25T10:43:40;16.20;;;2.53;;
70997;SDS011;58663;52.040;4.634;2022-11-25T10:48:54;8.68;;;2.25;;
70997;SDS011;58663;52.040;4.634;2022-11-25T10:54:16;7.80;;;2.00;;
70997;SDS011;58663;52.040;4.634;2022-11-25T11:02:17;9.25;;;1.70;;
70997;SDS011;58663;52.040;4.634;2022-11-25T11:07:33;10.13;;;2.35;;
70997;SDS011;58663;52.040;4.634;2022-11-25T11:10:16;12.18;;;2.05;;
70997;SDS011;58663;52.040;4.634;2022-11-25T11:15:25;13.10;;;2.28;;
70997;SDS011;58663;52.040;4.634;2022-11-25T11:17:53;8.35;;;2.08;;
70997;SDS011;58663;52.040;4.634;2022-11-25T11:20:28;13.55;;;2.00;;
70997;SDS011;58663;52.040;4.634;2022-11-25T11:25:27;9.23;;;2.15;;
70997;SDS011;58663;52.040;4.634;2022-11-25T11:27:55;11.10;;;1.80;;
70997;SDS011;58663;52.040;4.634;2022-11-25T11:30:22;13.55;;;2.58;;
70997;SDS011;58663;52.040;4.634;2022-11-25T11:35:36;7.22;;;1.60;;
70997;SDS011;58663;52.040;4.634;2022-11-25T11:38:12;16.38;;;2.67;;
70997;SDS011;58663;52.040;4.634;2022-11-25T11:40:51;18.35;;;2.70;;
70997;SDS011;58663;52.040;4.634;2022-11-25T11:46:13;20.15;;;2.92;;
70997;SDS011;58663;52.040;4.634;2022-11-25T11:56:45;10.85;;;2.15;;
70997;SDS011;58663;52.040;4.634;2022-11-25T12:10:30;8.85;;;1.85;;
70997;SDS011;58663;52.040;4.634;2022-11-25T12:18:17;13.93;;;1.88;;
70997;SDS011;58663;52.040;4.634;2022-11-25T12:23:23;10.05;;;1.88;;
70997;SDS011;58663;52.040;4.634;2022-11-25T12:25:52;13.85;;;2.10;;
70997;SDS011;58663;52.040;4.634;2022-11-25T12:28:23;13.55;;;2.78;;
70997;SDS011;58663;52.040;4.634;2022-11-25T12:33:18;9.48;;;1.95;;
70997;SDS011;58663;52.040;4.634;2022-11-25T12:35:53;13.82;;;2.03;;
70997;SDS011;58663;52.040;4.634;2022-11-25T12:48:58;13.45;;;2.70;;
70997;SDS011;58663;52.040;4.634;2022-11-25T12:56:44;17.88;;;3.20;;
70997;SDS011;58663;52.040;4.634;2022-11-25T12:59:37;24.85;;;3.50;;
70997;SDS011;58663;52.040;4.634;2022-11-25T13:07:24;17.42;;;2.50;;
70997;SDS011;58663;52.040;4.634;2022-11-25T13:10:00;4.53;;;2.15;;
70997;SDS011;58663;52.040;4.634;2022-11-25T13:15:25;21.65;;;4.80;;
70997;SDS011;58663;52.040;4.634;2022-11-25T13:17:59;16.08;;;2.38;;
70997;SDS011;58663;52.040;4.634;2022-11-25T13:25:34;13.38;;;2.67;;
70997;SDS011;58663;52.040;4.634;2022-11-25T13:28:03;10.20;;;2.28;;
70997;SDS011;58663;52.040;4.634;2022-11-25T13:35:35;19.23;;;2.25;;
70997;SDS011;58663;52.040;4.634;2022-11-25T13:38:06;11.35;;;1.85;;
70997;SDS011;58663;52.040;4.634;2022-11-25T13:40:33;11.52;;;2.38;;
70997;SDS011;58663;52.040;4.634;2022-11-25T13:43:01;11.07;;;2.00;;
70997;SDS011;58663;52.040;4.634;2022-11-25T13:45:34;17.42;;;2.63;;
70997;SDS011;58663;52.040;4.634;2022-11-25T13:48:21;14.90;;;2.70;;
70997;SDS011;58663;52.040;4.634;2022-11-25T13:50:49;17.27;;;2.75;;
70997;SDS011;58663;52.040;4.634;2022-11-25T13:53:22;20.13;;;2.50;;
70997;SDS011;58663;52.040;4.634;2022-11-25T13:55:50;18.13;;;2.70;;
70997;SDS011;58663;52.040;4.634;2022-11-25T13:58:25;21.77;;;2.60;;
70997;SDS011;58663;52.040;4.634;2022-11-25T14:06:02;8.45;;;1.73;;
70997;SDS011;58663;52.040;4.634;2022-11-25T14:11:38;16.55;;;2.22;;
70997;SDS011;58663;52.040;4.634;2022-11-25T14:25:48;17.38;;;1.83;;
70997;SDS011;58663;52.040;4.634;2022-11-25T14:30:54;15.75;;;2.20;;
70997;SDS011;58663;52.040;4.634;2022-11-25T14:33:30;13.15;;;2.45;;
70997;SDS011;58663;52.040;4.634;2022-11-25T14:36:00;7.65;;;1.73;;
70997;SDS011;58663;52.040;4.634;2022-11-25T14:41:19;16.58;;;3.50;;
70997;SDS011;58663;52.040;4.634;2022-11-25T14:43:49;8.05;;;1.58;;
70997;SDS011;58663;52.040;4.634;2022-11-25T14:46:19;11.27;;;1.98;;
70997;SDS011;58663;52.040;4.634;2022-11-25T14:48:51;12.90;;;1.80;;
70997;SDS011;58663;52.040;4.634;2022-11-25T14:51:18;16.05;;;2.17;;
70997;SDS011;58663;52.040;4.634;2022-11-25T14:53:45;10.85;;;1.92;;
70997;SDS011;58663;52.040;4.634;2022-11-25T14:56:12;12.25;;;2.05;;
70997;SDS011;58663;52.040;4.634;2022-11-25T14:58:40;11.27;;;1.70;;
70997;SDS011;58663;52.040;4.634;2022-11-25T15:01:07;9.35;;;1.50;;
70997;SDS011;58663;52.040;4.634;2022-11-25T15:03:41;14.02;;;1.75;;
70997;SDS011;58663;52.040;4.634;2022-11-25T15:06:10;11.50;;;2.20;;
70997;SDS011;58663;52.040;4.634;2022-11-25T15:08:38;10.35;;;1.98;;
70997;SDS011;58663;52.040;4.634;2022-11-25T15:13:44;12.05;;;1.67;;
70997;SDS011;58663;52.040;4.634;2022-11-25T15:16:18;13.35;;;2.10;;
70997;SDS011;58663;52.040;4.634;2022-11-25T15:21:15;10.38;;;1.48;;
70997;SDS011;58663;52.040;4.634;2022-11-25T15:23:43;11.35;;;1.60;;
70997;SDS011;58663;52.040;4.634;2022-11-25T15:26:14;9.65;;;1.38;;
70997;SDS011;58663;52.040;4.634;2022-11-25T15:28:44;7.95;;;2.50;;
70997;SDS011;58663;52.040;4.634;2022-11-25T15:31:10;10.02;;;1.40;;
70997;SDS011;58663;52.040;4.634;2022-11-25T15:33:41;25.55;;;2.05;;
70997;SDS011;58663;52.040;4.634;2022-11-25T15:36:07;13.35;;;1.52;;
70997;SDS011;58663;52.040;4.634;2022-11-25T15:41:02;17.33;;;2.53;;
70997;SDS011;58663;52.040;4.634;2022-11-25T15:43:28;12.52;;;1.48;;
70997;SDS011;58663;52.040;4.634;2022-11-25T15:45:56;13.13;;;1.70;;
70997;SDS011;58663;52.040;4.634;2022-11-25T15:48:26;10.60;;;1.63;;
70997;SDS011;58663;52.040;4.634;2022-11-25T15:50:55;16.33;;;2.30;;
70997;SDS011;58663;52.040;4.634;2022-11-25T15:54:23;7.63;;;1.98;;
70997;SDS011;58663;52.040;4.634;2022-11-25T15:56:47;8.40;;;1.73;;
70997;SDS011;58663;52.040;4.634;2022-11-25T16:01:58;9.13;;;1.80;;
70997;SDS011;58663;52.040;4.634;2022-11-25T16:04:23;12.38;;;2.42;;
70997;SDS011;58663;52.040;4.634;2022-11-25T16:06:53;9.20;;;2.00;;
70997;SDS011;58663;52.040;4.634;2022-11-25T16:09:20;10.35;;;2.00;;
70997;SDS011;58663;52.040;4.634;2022-11-25T16:11:47;15.10;;;2.20;;
70997;SDS011;58663;52.040;4.634;2022-11-25T16:14:16;8.45;;;1.67;;
70997;SDS011;58663;52.040;4.634;2022-11-25T16:17:10;7.33;;;2.10;;
70997;SDS011;58663;52.040;4.634;2022-11-25T16:19:43;22.13;;;2.40;;
70997;SDS011;58663;52.040;4.634;2022-11-25T16:22:11;7.03;;;2.00;;
70997;SDS011;58663;52.040;4.634;2022-11-25T16:24:40;9.02;;;1.70;;
70997;SDS011;58663;52.040;4.634;2022-11-25T16:29:55;7.80;;;1.92;;
70997;SDS011;58663;52.040;4.634;2022-11-25T16:32:24;11.48;;;1.77;;
70997;SDS011;58663;52.040;4.634;2022-11-25T16:34:51;9.30;;;1.73;;
70997;SDS011;58663;52.040;4.634;2022-11-25T16:37:20;13.25;;;2.45;;
70997;SDS011;58663;52.040;4.634;2022-11-25T16:39:46;9.60;;;2.35;;
70997;SDS011;58663;52.040;4.634;2022-11-25T16:42:20;8.90;;;2.28;;
70997;SDS011;58663;52.040;4.634;2022-11-25T16:44:50;11.15;;;2.22;;
70997;SDS011;58663;52.040;4.634;2022-11-25T16:47:16;10.75;;;2.58;;
70997;SDS011;58663;52.040;4.634;2022-11-25T16:49:43;13.98;;;2.50;;
70997;SDS011;58663;52.040;4.634;2022-11-25T16:52:08;13.57;;;2.10;;
70997;SDS011;58663;52.040;4.634;2022-11-25T16:54:34;11.82;;;2.10;;
70997;SDS011;58663;52.040;4.634;2022-11-25T16:57:01;8.23;;;2.65;;
70997;SDS011;58663;52.040;4.634;2022-11-25T16:59:31;5.97;;;2.10;;
70997;SDS011;58663;52.040;4.634;2022-11-25T17:02:01;11.23;;;3.00;;
70997;SDS011;58663;52.040;4.634;2022-11-25T17:04:29;11.77;;;3.58;;
70997;SDS011;58663;52.040;4.634;2022-11-25T17:06:54;15.02;;;2.47;;
70997;SDS011;58663;52.040;4.634;2022-11-25T17:09:20;18.20;;;3.50;;
70997;SDS011;58663;52.040;4.634;2022-11-25T17:11:46;16.17;;;3.30;;
70997;SDS011;58663;52.040;4.634;2022-11-25T17:14:28;23.88;;;4.47;;
70997;SDS011;58663;52.040;4.634;2022-11-25T17:16:55;13.45;;;5.05;;
70997;SDS011;58663;52.040;4.634;2022-11-25T17:19:22;18.02;;;5.72;;
70997;SDS011;58663;52.040;4.634;2022-11-25T17:21:47;20.48;;;6.50;;
70997;SDS011;58663;52.040;4.634;2022-11-25T17:24:17;17.00;;;6.78;;
70997;SDS011;58663;52.040;4.634;2022-11-25T17:26:44;22.60;;;6.95;;
70997;SDS011;58663;52.040;4.634;2022-11-25T17:29:33;16.15;;;5.25;;
70997;SDS011;58663;52.040;4.634;2022-11-25T17:32:00;17.52;;;5.70;;
70997;SDS011;58663;52.040;4.634;2022-11-25T17:34:26;10.32;;;4.97;;